createdAt,value
2023-04-16T00:02:55.629Z,91.96513
2023-04-16T00:07:57.393Z,94.30726
2023-04-16T00:12:58.983Z,91.38402
2023-04-16T00:18:00.370Z,96.16701
2023-04-16T00:23:01.822Z,100
2023-04-16T00:28:03.455Z,100
2023-04-16T00:33:04.761Z,99.61273
2023-04-16T00:38:06.209Z,96.67464
2023-04-16T00:43:07.650Z,98.42978
2023-04-16T00:48:09.053Z,94.93423
2023-04-16T00:53:10.375Z,95.08599
2023-04-16T00:58:11.747Z,94.3977
2023-04-16T01:03:13.268Z,95.31913
2023-04-16T01:08:14.740Z,91.63932
2023-04-16T01:13:16.092Z,93.75286
2023-04-16T01:18:17.382Z,90.3985
2023-04-16T01:23:18.403Z,90.11308
2023-04-16T01:28:19.871Z,88.88739
2023-04-16T01:33:21.422Z,91.36803
2023-04-16T01:38:22.937Z,90.1545
2023-04-16T01:43:24.709Z,93.7312
2023-04-16T01:48:25.956Z,95.92806
2023-04-16T01:53:27.287Z,95.59852
2023-04-16T01:58:28.819Z,92.85273
2023-04-16T02:03:30.304Z,96.3989
2023-04-16T02:08:31.820Z,96.07991
2023-04-16T02:13:33.200Z,94.73945
2023-04-16T02:18:34.618Z,93.86938
2023-04-16T02:23:36.174Z,96.01958
2023-04-16T02:28:37.724Z,92.50181
2023-04-16T02:33:39.257Z,97.94828
2023-04-16T02:38:40.552Z,93.91648
2023-04-16T02:43:41.920Z,100
2023-04-16T02:48:43.561Z,97.00758
2023-04-16T02:53:44.840Z,98.038
2023-04-16T02:58:46.301Z,100
2023-04-16T03:03:47.915Z,100
2023-04-16T03:08:49.334Z,99.73601
2023-04-16T03:13:50.742Z,99.97539
2023-04-16T03:18:52.131Z,100
2023-04-16T03:23:53.621Z,100
2023-04-16T03:28:55.226Z,100
2023-04-16T03:33:56.769Z,100
2023-04-16T03:38:58.083Z,100
2023-04-16T03:43:59.693Z,100
2023-04-16T03:49:01.016Z,99.74532
2023-04-16T03:54:02.422Z,100
2023-04-16T03:59:03.987Z,100
2023-04-16T04:04:05.463Z,100
2023-04-16T04:09:07.056Z,100
2023-04-16T04:14:08.692Z,100
2023-04-16T04:19:10.044Z,100
2023-04-16T04:24:11.640Z,100
2023-04-16T04:29:12.941Z,100
2023-04-16T04:34:14.336Z,100
2023-04-16T04:39:15.676Z,100
2023-04-16T04:44:17.184Z,100
2023-04-16T04:49:18.586Z,100
2023-04-16T04:54:19.950Z,100
2023-04-16T04:59:21.340Z,100
2023-04-16T05:04:22.828Z,100
2023-04-16T05:09:24.148Z,100
2023-04-16T05:14:25.610Z,100
2023-04-16T05:19:26.986Z,100
2023-04-16T05:24:28.382Z,100
2023-04-16T05:29:29.965Z,100
2023-04-16T05:34:31.571Z,100
2023-04-16T05:39:33.232Z,100
2023-04-16T05:44:35.015Z,100
2023-04-16T05:49:36.374Z,100
2023-04-16T05:54:37.965Z,100
2023-04-16T05:59:39.407Z,100
2023-04-16T06:04:41.009Z,100
2023-04-16T06:09:42.364Z,100
2023-04-16T06:14:43.951Z,100
2023-04-16T06:19:45.397Z,100
2023-04-16T06:24:46.435Z,100
2023-04-16T06:29:47.961Z,100
2023-04-16T06:34:49.376Z,100
2023-04-16T06:39:50.756Z,100
2023-04-16T06:44:52.130Z,100
2023-04-16T06:49:53.192Z,100
2023-04-16T06:54:54.569Z,100
2023-04-16T06:59:56.247Z,100
2023-04-16T07:04:57.748Z,100
2023-04-16T07:09:59.223Z,100
2023-04-16T07:15:00.786Z,100
2023-04-16T07:20:02.261Z,100
2023-04-16T07:25:03.768Z,100
2023-04-16T07:30:05.360Z,97.58821
2023-04-16T07:35:06.587Z,97.05425
2023-04-16T07:40:07.875Z,98.59441
2023-04-16T07:45:09.480Z,95.96178
2023-04-16T07:50:10.727Z,95.78795
2023-04-16T07:55:12.150Z,97.26605
2023-04-16T08:00:13.482Z,97.00714
2023-04-16T08:05:14.760Z,96.09242
2023-04-16T08:10:16.283Z,92.55984
2023-04-16T08:15:17.526Z,90.65699
2023-04-16T08:20:19.534Z,91.52436
2023-04-16T08:25:21.148Z,90.74608
2023-04-16T08:30:22.529Z,90.97153
2023-04-16T08:35:23.990Z,88.32086
2023-04-16T08:40:25.323Z,88.96138
2023-04-16T08:45:26.656Z,85.06808
2023-04-16T08:50:28.019Z,87.97512
2023-04-16T08:55:29.475Z,85.48996
2023-04-16T09:00:30.873Z,87.85952
2023-04-16T09:05:32.123Z,85.44517
2023-04-16T09:10:33.405Z,82.34624
2023-04-16T09:15:35.238Z,80.22109
2023-04-16T09:20:36.872Z,81.68676
2023-04-16T09:25:38.425Z,78.01657
2023-04-16T09:30:39.663Z,79.75203
2023-04-16T09:35:40.920Z,76.77008
2023-04-16T09:40:42.441Z,79.02458
2023-04-16T09:45:43.886Z,78.8365
2023-04-16T09:50:45.217Z,73.1476
2023-04-16T09:55:47.013Z,79.56659
2023-04-16T10:00:48.238Z,77.93502
2023-04-16T10:05:49.396Z,74.94254
2023-04-16T10:10:50.617Z,73.58964
2023-04-16T10:15:51.960Z,74.4921
2023-04-16T10:20:53.297Z,74.46931
2023-04-16T10:25:56.954Z,73.57344
2023-04-16T10:30:59.191Z,67.78619
2023-04-16T10:36:07.358Z,69.45744
2023-04-16T10:41:09.507Z,62.18323
2023-04-16T10:46:11.389Z,65.70425
2023-04-16T10:51:12.927Z,65.55157
2023-04-16T10:56:14.607Z,59.35656
2023-04-16T11:01:16.230Z,58.52055
2023-04-16T11:06:18.035Z,63.04635
2023-04-16T11:11:19.529Z,59.04416
2023-04-16T11:16:20.968Z,61.64488
2023-04-16T11:21:22.344Z,58.44426
2023-04-16T11:26:23.508Z,56.17206
2023-04-16T11:31:24.969Z,58.41503
2023-04-16T11:36:27.700Z,59.14149
2023-04-16T11:41:29.297Z,56.41634
2023-04-16T11:46:30.799Z,54.35106
2023-04-16T11:51:32.556Z,50.7189
2023-04-16T11:56:33.883Z,57.36699
2023-04-16T12:01:35.420Z,53.80418
2023-04-16T12:06:36.974Z,51.5848
2023-04-16T12:11:38.524Z,50.70205
2023-04-16T12:16:40.421Z,50.08438
2023-04-16T12:21:42.038Z,49.68564
2023-04-16T12:26:43.715Z,48.49854
2023-04-16T12:31:45.325Z,45.57621
2023-04-16T12:36:46.946Z,45.23915
2023-04-16T12:41:48.409Z,42.4319
2023-04-16T12:46:49.976Z,43.28575
2023-04-16T12:51:51.476Z,43.53009
2023-04-16T12:56:53.061Z,41.28327
2023-04-16T13:01:54.596Z,43.76611
2023-04-16T13:06:56.090Z,40.02677
2023-04-16T13:11:57.337Z,39.49201
2023-04-16T13:16:59.125Z,34.19673
2023-04-16T13:22:00.385Z,33.09043
2023-04-16T13:27:01.888Z,30.43586
2023-04-16T13:32:03.487Z,27.54659
2023-04-16T13:37:05.098Z,31.48009
2023-04-16T13:42:06.656Z,31.49979
2023-04-16T13:47:08.326Z,33.83119
2023-04-16T13:52:09.672Z,32.94284
2023-04-16T13:57:10.963Z,33.71684
2023-04-16T14:02:12.632Z,34.395
2023-04-16T14:07:13.995Z,33.7791
2023-04-16T14:12:15.530Z,33.79406
2023-04-16T14:17:17.238Z,34.04146
2023-04-16T14:22:18.801Z,32.25998
2023-04-16T14:27:20.160Z,31.30306
2023-04-16T14:32:21.537Z,31.08479
2023-04-16T14:37:23.165Z,31.97578
2023-04-16T14:42:24.536Z,31.59346
2023-04-16T14:47:26.029Z,32.84164
2023-04-16T14:52:27.311Z,32.9811
2023-04-16T14:57:28.584Z,34.36882
2023-04-16T15:02:30.167Z,34.56551
2023-04-16T15:07:31.651Z,33.06488
2023-04-16T15:12:32.972Z,37.5998
2023-04-16T15:17:34.641Z,36.15979
2023-04-16T15:22:36.313Z,36.43046
2023-04-16T15:27:37.634Z,37.76949
2023-04-16T15:32:39.319Z,43.17624
2023-04-16T15:37:40.908Z,42.60894
2023-04-16T15:42:42.452Z,43.06484
2023-04-16T15:47:43.912Z,44.2163
2023-04-16T15:52:45.212Z,47.33788
2023-04-16T15:57:46.788Z,47.31524
2023-04-16T16:02:48.502Z,50.54799
2023-04-16T16:07:50.266Z,51.28307
2023-04-16T16:12:51.628Z,53.36917
2023-04-16T16:17:53.255Z,54.851
2023-04-16T16:22:54.819Z,56.97619
2023-04-16T16:27:56.393Z,56.1091
2023-04-16T16:32:57.882Z,56.3225
2023-04-16T16:37:59.463Z,61.06101
2023-04-16T16:43:00.769Z,60.07967
2023-04-16T16:48:02.282Z,61.57284
2023-04-16T16:53:03.791Z,57.24615
2023-04-16T16:58:05.344Z,58.69046
2023-04-16T17:03:07.193Z,58.03341
2023-04-16T17:08:08.604Z,58.12926
2023-04-16T17:13:09.784Z,60.17477
2023-04-16T17:18:11.142Z,61.50129
2023-04-16T17:23:13.093Z,60.70431
2023-04-16T17:28:14.524Z,61.35963
2023-04-16T17:33:15.873Z,60.9657
2023-04-16T17:38:17.356Z,61.95445
2023-04-16T17:43:18.647Z,62.94452
2023-04-16T17:48:19.666Z,62.1284
2023-04-16T17:53:21.341Z,63.01069
2023-04-16T17:58:22.818Z,64.59889
2023-04-16T18:03:24.519Z,61.64423
2023-04-16T18:08:25.648Z,62.69707
2023-04-16T18:13:27.256Z,62.76701
2023-04-16T18:18:28.754Z,58.47433
2023-04-16T18:23:30.078Z,60.62076
2023-04-16T18:28:31.482Z,63.22412
2023-04-16T18:38:46.310Z,64.78275
2023-04-16T18:43:54.714Z,65.91821
2023-04-16T18:48:56.338Z,65.49064
2023-04-16T18:53:57.622Z,66.48856
2023-04-16T18:58:59.193Z,66.70074
2023-04-16T19:04:00.734Z,67.69989
2023-04-16T19:09:02.169Z,65.65077
2023-04-16T19:14:03.407Z,64.90879
2023-04-16T19:19:05.226Z,68.23522
2023-04-16T19:24:06.620Z,70.56653
2023-04-16T19:29:07.913Z,67.8205
2023-04-16T19:34:09.373Z,68.78931
2023-04-16T19:39:11.237Z,69.98259
2023-04-16T19:44:12.898Z,68.0599
2023-04-16T19:49:14.205Z,69.24374
2023-04-16T19:54:15.545Z,70.54933
2023-04-16T19:59:17.175Z,68.07841
2023-04-16T20:04:18.600Z,70.34729
2023-04-16T20:09:20.300Z,69.74325
2023-04-16T20:14:21.626Z,69.86334
2023-04-16T20:19:23.075Z,70.16358
2023-04-16T20:24:24.545Z,70.94063
2023-04-16T20:29:25.857Z,74.0654
2023-04-16T20:34:27.208Z,72.44462
2023-04-16T20:39:28.606Z,71.98128
2023-04-16T20:44:30.137Z,72.23047
2023-04-16T20:49:31.503Z,74.95077
2023-04-16T20:54:33.101Z,75.64422
2023-04-16T20:59:34.364Z,76.91371
2023-04-16T21:04:35.751Z,76.07243
2023-04-16T21:09:37.273Z,74.41868
2023-04-16T21:14:38.899Z,75.46181
2023-04-16T21:19:40.406Z,77.96262
2023-04-16T21:24:41.707Z,77.72444
2023-04-16T21:29:43.026Z,76.55727
2023-04-16T22:23:05.575Z,85.52097
2023-04-16T22:28:06.941Z,85.65735
2023-04-16T22:33:08.439Z,83.81863
2023-04-16T22:38:10.162Z,85.9515
2023-04-16T22:43:11.525Z,85.93346
2023-04-16T22:48:13.125Z,86.6959
2023-04-16T22:53:14.774Z,83.89035
2023-04-16T22:58:16.192Z,85.51166
2023-04-16T23:03:17.773Z,88.16813
2023-04-16T23:08:19.136Z,88.93991
2023-04-16T23:13:20.493Z,87.26748
2023-04-16T23:18:22.012Z,87.15111
2023-04-16T23:23:23.519Z,84.93222
2023-04-16T23:28:25.086Z,88.38645
2023-04-16T23:33:26.370Z,88.6578
2023-04-16T23:38:27.621Z,88.00186
2023-04-16T23:43:28.860Z,91.05828
2023-04-16T23:48:30.347Z,90.32704
2023-04-16T23:53:31.764Z,87.70359
2023-04-16T23:58:33.103Z,88.48225
